Terminal Aerodrome Forecast
Issued by NWS

Home | Current Version | Previous Version | Text Only | Print | Product List | Glossary On
Versions: 1 2 3 4 5 6 7 8 9 10 11 12 13 14 15 16 17 18
000
FTUS44 KLIX 190500
TAFMCB
TAF
KMCB 190520Z 1906/2006 VRB04KT P6SM VCSH SCT022 BKN080
      TEMPO 1906/1910 4SM -SHRA BKN022
     FM191000 VRB03KT 5SM BR SCT020 BKN080
      TEMPO 1910/1913 2SM BR BKN005
     FM191400 10004KT P6SM SCT030 BKN130
     FM200000 07004KT P6SM SCT250=

USA.gov is the U.S. government's official web portal to all federal, state and local government web resources and services.